Terminal Aerodrome Forecast
Issued by NWS

Home | Current Version | Previous Version | Text Only | Print | Product List | Glossary Off
Versions: 1 2 3 4 5 6 7 8 9 10 11 12 13 14 15 16 17 18 19 20 21

000
FTUS43 KMPX 291500 AAA
TAFRWF
TAF AMD
KRWF 291518Z 2915/3012 04008KT P6SM OVC014
     FM291800 06008KT P6SM OVC020
     FM292100 06008KT P6SM SCT015 BKN035
     FM300900 11007KT 3SM BR OVC005=

USA.gov is the U.S. government's official web portal to all federal, state and local government web resources and services.